sensor_id;sensor_type;location;lat;lon;timestamp;pressure;altitude;pressure_sealevel;temperature;humidity
22651;BME280;11492;42.646;23.400;2022-12-29T00:01:36;95983.72;;;5.41;75.70
22651;BME280;11492;42.646;23.400;2022-12-29T00:04:02;95982.25;;;5.39;74.80
22651;BME280;11492;42.646;23.400;2022-12-29T00:06:28;95975.75;;;5.35;75.14
22651;BME280;11492;42.646;23.400;2022-12-29T00:08:54;95974.22;;;5.32;75.43
22651;BME280;11492;42.646;23.400;2022-12-29T00:11:23;95967.63;;;5.30;75.10
22651;BME280;11492;42.646;23.400;2022-12-29T00:13:49;95979.78;;;5.37;75.66
22651;BME280;11492;42.646;23.400;2022-12-29T00:16:35;95979.25;;;5.34;74.66
22651;BME280;11492;42.646;23.400;2022-12-29T00:19:01;95975.88;;;5.33;75.56
22651;BME280;11492;42.646;23.400;2022-12-29T00:21:27;95967.41;;;5.22;75.84
22651;BME280;11492;42.646;23.400;2022-12-29T00:24:15;95986.47;;;5.29;75.39
22651;BME280;11492;42.646;23.400;2022-12-29T00:29:47;95991.25;;;5.22;75.72
22651;BME280;11492;42.646;23.400;2022-12-29T00:32:31;95987.22;;;5.20;75.75
22651;BME280;11492;42.646;23.400;2022-12-29T00:35:29;95986.13;;;5.22;75.92
22651;BME280;11492;42.646;23.400;2022-12-29T00:37:57;95986.84;;;5.24;75.13
22651;BME280;11492;42.646;23.400;2022-12-29T00:40:42;95991.75;;;5.17;76.05
22651;BME280;11492;42.646;23.400;2022-12-29T00:43:26;95979.59;;;5.09;75.37
22651;BME280;11492;42.646;23.400;2022-12-29T00:46:10;95998.44;;;5.08;75.31
22651;BME280;11492;42.646;23.400;2022-12-29T00:48:35;96000.41;;;5.05;75.93
22651;BME280;11492;42.646;23.400;2022-12-29T00:51:19;96001.84;;;4.98;75.37
22651;BME280;11492;42.646;23.400;2022-12-29T00:53:45;95994.88;;;4.89;76.18
22651;BME280;11492;42.646;23.400;2022-12-29T00:56:10;95993.13;;;4.90;75.69
22651;BME280;11492;42.646;23.400;2022-12-29T00:58:35;95993.13;;;4.90;76.54
22651;BME280;11492;42.646;23.400;2022-12-29T01:01:03;95999.38;;;4.96;75.80
22651;BME280;11492;42.646;23.400;2022-12-29T01:03:29;96004.63;;;4.95;76.33
22651;BME280;11492;42.646;23.400;2022-12-29T01:05:54;95990.09;;;4.96;76.05
22651;BME280;11492;42.646;23.400;2022-12-29T01:08:19;95999.84;;;5.01;75.43
22651;BME280;11492;42.646;23.400;2022-12-29T01:10:45;95993.22;;;4.99;76.10
22651;BME280;11492;42.646;23.400;2022-12-29T01:13:10;95985.34;;;4.91;76.21
22651;BME280;11492;42.646;23.400;2022-12-29T01:15:35;95987.31;;;4.98;76.50
22651;BME280;11492;42.646;23.400;2022-12-29T01:18:01;95983.22;;;4.96;75.58
22651;BME280;11492;42.646;23.400;2022-12-29T01:20:26;95964.09;;;4.80;75.75
22651;BME280;11492;42.646;23.400;2022-12-29T01:22:53;95981.06;;;4.92;75.82
22651;BME280;11492;42.646;23.400;2022-12-29T01:25:19;95980.72;;;4.85;75.70
22651;BME280;11492;42.646;23.400;2022-12-29T01:27:44;95985.00;;;4.85;76.52
22651;BME280;11492;42.646;23.400;2022-12-29T01:30:10;95983.88;;;4.78;76.85
22651;BME280;11492;42.646;23.400;2022-12-29T01:32:35;95984.91;;;4.75;77.37
22651;BME280;11492;42.646;23.400;2022-12-29T01:35:01;95987.38;;;4.77;77.27
22651;BME280;11492;42.646;23.400;2022-12-29T01:37:26;95975.63;;;4.74;77.10
22651;BME280;11492;42.646;23.400;2022-12-29T01:39:52;95960.78;;;4.69;77.50
22651;BME280;11492;42.646;23.400;2022-12-29T01:42:19;95956.72;;;4.66;77.32
22651;BME280;11492;42.646;23.400;2022-12-29T01:44:56;95970.78;;;4.72;77.46
22651;BME280;11492;42.646;23.400;2022-12-29T01:47:49;95976.94;;;4.69;77.50
22651;BME280;11492;42.646;23.400;2022-12-29T01:50:37;95973.78;;;4.66;76.79
22651;BME280;11492;42.646;23.400;2022-12-29T01:53:11;95964.75;;;4.62;77.26
22651;BME280;11492;42.646;23.400;2022-12-29T01:55:52;95953.25;;;4.56;77.33
22651;BME280;11492;42.646;23.400;2022-12-29T01:58:21;95951.66;;;4.55;77.46
22651;BME280;11492;42.646;23.400;2022-12-29T02:00:47;95966.50;;;4.61;77.94
22651;BME280;11492;42.646;23.400;2022-12-29T02:03:13;95959.28;;;4.66;77.57
22651;BME280;11492;42.646;23.400;2022-12-29T02:05:56;95956.81;;;4.65;77.36
22651;BME280;11492;42.646;23.400;2022-12-29T02:08:25;95947.91;;;4.59;77.65
22651;BME280;11492;42.646;23.400;2022-12-29T02:10:52;95946.53;;;4.55;78.30
22651;BME280;11492;42.646;23.400;2022-12-29T02:13:18;95956.28;;;4.61;78.14
22651;BME280;11492;42.646;23.400;2022-12-29T02:16:09;95946.94;;;4.60;77.74
22651;BME280;11492;42.646;23.400;2022-12-29T02:19:07;95960.56;;;4.61;78.76
22651;BME280;11492;42.646;23.400;2022-12-29T02:22:10;95952.78;;;4.62;78.28
22651;BME280;11492;42.646;23.400;2022-12-29T02:36:07;95936.94;;;4.68;77.86
22651;BME280;11492;42.646;23.400;2022-12-29T02:44:43;95941.09;;;4.80;78.73
22651;BME280;11492;42.646;23.400;2022-12-29T02:52:54;95932.25;;;4.84;78.75
22651;BME280;11492;42.646;23.400;2022-12-29T02:55:22;95923.75;;;4.83;78.19
22651;BME280;11492;42.646;23.400;2022-12-29T02:57:47;95928.88;;;4.83;77.84
22651;BME280;11492;42.646;23.400;2022-12-29T03:00:16;95932.91;;;4.86;78.21
22651;BME280;11492;42.646;23.400;2022-12-29T03:02:53;95943.59;;;4.91;77.59
22651;BME280;11492;42.646;23.400;2022-12-29T03:08:59;95936.63;;;4.93;77.85
22651;BME280;11492;42.646;23.400;2022-12-29T03:11:33;95932.06;;;4.96;77.41
22651;BME280;11492;42.646;23.400;2022-12-29T03:15:04;95936.00;;;5.00;77.11
22651;BME280;11492;42.646;23.400;2022-12-29T03:18:05;95940.31;;;4.99;77.81
22651;BME280;11492;42.646;23.400;2022-12-29T03:20:38;95932.94;;;5.06;76.70
22651;BME280;11492;42.646;23.400;2022-12-29T03:23:05;95921.81;;;4.96;76.76
22651;BME280;11492;42.646;23.400;2022-12-29T03:25:38;95933.53;;;5.09;77.49
22651;BME280;11492;42.646;23.400;2022-12-29T03:28:12;95932.94;;;5.06;76.52
22651;BME280;11492;42.646;23.400;2022-12-29T03:30:39;95930.53;;;5.04;76.73
22651;BME280;11492;42.646;23.400;2022-12-29T03:33:10;95917.78;;;4.94;77.26
22651;BME280;11492;42.646;23.400;2022-12-29T03:35:38;95929.63;;;4.95;77.30
22651;BME280;11492;42.646;23.400;2022-12-29T03:38:11;95929.19;;;4.90;76.98
22651;BME280;11492;42.646;23.400;2022-12-29T03:40:42;95929.69;;;4.84;77.85
22651;BME280;11492;42.646;23.400;2022-12-29T03:43:09;95945.72;;;4.86;77.76
22651;BME280;11492;42.646;23.400;2022-12-29T03:45:35;95938.44;;;4.81;77.55
22651;BME280;11492;42.646;23.400;2022-12-29T03:48:00;95923.50;;;4.66;77.42
22651;BME280;11492;42.646;23.400;2022-12-29T03:50:26;95933.72;;;4.66;77.02
22651;BME280;11492;42.646;23.400;2022-12-29T03:52:51;95946.94;;;4.71;77.19
22651;BME280;11492;42.646;23.400;2022-12-29T03:55:16;95940.69;;;4.64;76.56
22651;BME280;11492;42.646;23.400;2022-12-29T03:57:42;95934.47;;;4.47;76.51
22651;BME280;11492;42.646;23.400;2022-12-29T04:00:08;95948.84;;;4.47;76.83
22651;BME280;11492;42.646;23.400;2022-12-29T04:02:34;95947.00;;;4.39;77.13
22651;BME280;11492;42.646;23.400;2022-12-29T04:04:59;95941.59;;;4.22;76.74
22651;BME280;11492;42.646;23.400;2022-12-29T04:07:24;95944.38;;;4.19;77.36
22651;BME280;11492;42.646;23.400;2022-12-29T04:09:50;95948.22;;;4.13;76.46
22651;BME280;11492;42.646;23.400;2022-12-29T04:12:16;95960.88;;;4.15;76.36
22651;BME280;11492;42.646;23.400;2022-12-29T04:14:41;95949.28;;;4.11;77.32
22651;BME280;11492;42.646;23.400;2022-12-29T04:17:06;95947.41;;;4.02;77.64
22651;BME280;11492;42.646;23.400;2022-12-29T04:19:32;95947.75;;;3.97;77.51
22651;BME280;11492;42.646;23.400;2022-12-29T04:21:57;95935.25;;;3.95;77.36
22651;BME280;11492;42.646;23.400;2022-12-29T04:24:23;95941.84;;;3.97;77.27
22651;BME280;11492;42.646;23.400;2022-12-29T04:26:49;95951.25;;;3.97;77.09
22651;BME280;11492;42.646;23.400;2022-12-29T04:29:14;95947.31;;;3.82;77.57
22651;BME280;11492;42.646;23.400;2022-12-29T04:31:39;95950.56;;;3.84;78.00
22651;BME280;11492;42.646;23.400;2022-12-29T04:34:05;95943.47;;;3.76;78.37
22651;BME280;11492;42.646;23.400;2022-12-29T04:36:30;95964.25;;;3.83;78.22
22651;BME280;11492;42.646;23.400;2022-12-29T04:38:56;95955.09;;;3.80;79.04
22651;BME280;11492;42.646;23.400;2022-12-29T04:41:21;95950.78;;;3.59;78.43
22651;BME280;11492;42.646;23.400;2022-12-29T04:43:47;95963.34;;;3.73;78.56
22651;BME280;11492;42.646;23.400;2022-12-29T04:46:12;95969.59;;;3.69;78.49
22651;BME280;11492;42.646;23.400;2022-12-29T04:48:38;95965.50;;;3.67;78.79
22651;BME280;11492;42.646;23.400;2022-12-29T04:51:03;95983.97;;;3.70;78.52
22651;BME280;11492;42.646;23.400;2022-12-29T04:53:29;95977.00;;;3.61;77.97
22651;BME280;11492;42.646;23.400;2022-12-29T04:55:54;95972.59;;;3.63;77.97
22651;BME280;11492;42.646;23.400;2022-12-29T04:58:21;95972.81;;;3.60;77.91
22651;BME280;11492;42.646;23.400;2022-12-29T05:00:47;95973.63;;;3.61;78.99
22651;BME280;11492;42.646;23.400;2022-12-29T05:03:12;95983.59;;;3.53;78.76
22651;BME280;11492;42.646;23.400;2022-12-29T05:05:38;95979.19;;;3.55;78.38
22651;BME280;11492;42.646;23.400;2022-12-29T05:08:04;95968.16;;;3.54;78.42
22651;BME280;11492;42.646;23.400;2022-12-29T05:10:29;95991.84;;;3.67;78.43
22651;BME280;11492;42.646;23.400;2022-12-29T05:12:55;95982.00;;;3.63;78.52
22651;BME280;11492;42.646;23.400;2022-12-29T05:15:20;95978.75;;;3.72;79.13
22651;BME280;11492;42.646;23.400;2022-12-29T05:17:46;95971.22;;;3.70;78.90
22651;BME280;11492;42.646;23.400;2022-12-29T05:20:11;95972.13;;;3.69;79.47
22651;BME280;11492;42.646;23.400;2022-12-29T05:22:37;95990.50;;;3.85;78.91
22651;BME280;11492;42.646;23.400;2022-12-29T05:25:03;95976.09;;;3.84;79.22
22651;BME280;11492;42.646;23.400;2022-12-29T05:27:28;95973.31;;;3.87;80.16
22651;BME280;11492;42.646;23.400;2022-12-29T05:29:54;95979.59;;;4.04;79.43
22651;BME280;11492;42.646;23.400;2022-12-29T05:32:19;95967.97;;;4.00;80.17
22651;BME280;11492;42.646;23.400;2022-12-29T05:34:45;95971.59;;;4.09;79.74
22651;BME280;11492;42.646;23.400;2022-12-29T05:37:10;95971.09;;;4.15;79.76
22651;BME280;11492;42.646;23.400;2022-12-29T05:39:36;95967.81;;;4.23;79.15
22651;BME280;11492;42.646;23.400;2022-12-29T05:42:01;95988.84;;;4.38;78.82
22651;BME280;11492;42.646;23.400;2022-12-29T05:44:26;95986.75;;;4.43;78.61
22651;BME280;11492;42.646;23.400;2022-12-29T05:46:52;95979.75;;;4.45;78.65
22651;BME280;11492;42.646;23.400;2022-12-29T05:49:18;95981.16;;;4.48;79.47
22651;BME280;11492;42.646;23.400;2022-12-29T05:51:43;95992.22;;;4.27;78.70
22651;BME280;11492;42.646;23.400;2022-12-29T05:54:09;95980.25;;;4.28;80.07
22651;BME280;11492;42.646;23.400;2022-12-29T05:56:34;95999.06;;;4.38;79.28
22651;BME280;11492;42.646;23.400;2022-12-29T05:59:00;95992.78;;;4.42;79.62
22651;BME280;11492;42.646;23.400;2022-12-29T06:01:25;95998.38;;;4.47;79.56
22651;BME280;11492;42.646;23.400;2022-12-29T06:03:51;95997.88;;;4.52;79.57
22651;BME280;11492;42.646;23.400;2022-12-29T06:06:16;96002.16;;;4.63;78.98
22651;BME280;11492;42.646;23.400;2022-12-29T06:08:41;96007.72;;;4.68;78.43
22651;BME280;11492;42.646;23.400;2022-12-29T06:11:07;96010.97;;;4.70;78.79
22651;BME280;11492;42.646;23.400;2022-12-29T06:13:32;96001.56;;;4.70;79.03
22651;BME280;11492;42.646;23.400;2022-12-29T06:15:58;96007.03;;;4.76;78.58
22651;BME280;11492;42.646;23.400;2022-12-29T06:18:23;95998.16;;;4.80;78.21
22651;BME280;11492;42.646;23.400;2022-12-29T06:20:48;96007.53;;;4.91;78.17
22651;BME280;11492;42.646;23.400;2022-12-29T06:23:14;96005.34;;;4.97;77.67
22651;BME280;11492;42.646;23.400;2022-12-29T06:25:40;95985.22;;;4.93;77.74
22651;BME280;11492;42.646;23.400;2022-12-29T06:28:05;95998.53;;;5.07;77.58
22651;BME280;11492;42.646;23.400;2022-12-29T06:30:32;96005.16;;;5.09;77.27
22651;BME280;11492;42.646;23.400;2022-12-29T06:33:00;95994.84;;;5.00;77.57
22651;BME280;11492;42.646;23.400;2022-12-29T06:35:25;96001.09;;;5.07;77.14
22651;BME280;11492;42.646;23.400;2022-12-29T06:37:51;96006.78;;;5.10;77.43
22651;BME280;11492;42.646;23.400;2022-12-29T06:40:17;96008.31;;;5.13;77.76
22651;BME280;11492;42.646;23.400;2022-12-29T06:42:42;96007.84;;;5.08;77.20
22651;BME280;11492;42.646;23.400;2022-12-29T06:45:08;96009.66;;;5.17;77.87
22651;BME280;11492;42.646;23.400;2022-12-29T06:47:34;96016.66;;;5.15;77.97
22651;BME280;11492;42.646;23.400;2022-12-29T06:50:00;96007.38;;;5.14;77.82
22651;BME280;11492;42.646;23.400;2022-12-29T06:52:26;96006.44;;;5.15;77.23
22651;BME280;11492;42.646;23.400;2022-12-29T06:54:51;96020.63;;;5.19;78.07
22651;BME280;11492;42.646;23.400;2022-12-29T06:57:17;96020.94;;;5.25;77.45
22651;BME280;11492;42.646;23.400;2022-12-29T06:59:42;96028.13;;;5.31;76.90
22651;BME280;11492;42.646;23.400;2022-12-29T07:02:10;96026.94;;;5.35;77.26
22651;BME280;11492;42.646;23.400;2022-12-29T07:04:35;96023.56;;;5.34;77.00
22651;BME280;11492;42.646;23.400;2022-12-29T07:07:01;96027.16;;;5.32;77.06
22651;BME280;11492;42.646;23.400;2022-12-29T07:09:26;96027.16;;;5.32;76.78
22651;BME280;11492;42.646;23.400;2022-12-29T07:11:52;96013.69;;;5.30;77.50
22651;BME280;11492;42.646;23.400;2022-12-29T07:14:17;96013.78;;;5.39;76.75
22651;BME280;11492;42.646;23.400;2022-12-29T07:16:42;96020.50;;;5.40;77.26
22651;BME280;11492;42.646;23.400;2022-12-29T07:19:08;96021.56;;;5.38;76.48
22651;BME280;11492;42.646;23.400;2022-12-29T07:21:34;96003.72;;;5.16;77.62
22651;BME280;11492;42.646;23.400;2022-12-29T07:23:59;96013.03;;;5.17;77.67
22651;BME280;11492;42.646;23.400;2022-12-29T07:26:24;96015.44;;;5.29;77.73
22651;BME280;11492;42.646;23.400;2022-12-29T07:28:50;96015.44;;;5.29;77.01
22651;BME280;11492;42.646;23.400;2022-12-29T07:31:20;96016.56;;;5.36;77.01
22651;BME280;11492;42.646;23.400;2022-12-29T07:33:47;96016.66;;;5.46;76.91
22651;BME280;11492;42.646;23.400;2022-12-29T07:36:13;95997.84;;;5.36;77.62
22651;BME280;11492;42.646;23.400;2022-12-29T07:38:39;96021.31;;;5.41;77.19
22651;BME280;11492;42.646;23.400;2022-12-29T07:41:05;96014.59;;;5.40;76.61
22651;BME280;11492;42.646;23.400;2022-12-29T07:43:30;96010.44;;;5.48;76.58
22651;BME280;11492;42.646;23.400;2022-12-29T07:45:56;96015.78;;;5.56;76.59
22651;BME280;11492;42.646;23.400;2022-12-29T07:48:22;96007.03;;;5.58;75.91
22651;BME280;11492;42.646;23.400;2022-12-29T07:50:47;96020.09;;;5.55;76.16
22651;BME280;11492;42.646;23.400;2022-12-29T07:53:13;96024.34;;;5.66;75.99
22651;BME280;11492;42.646;23.400;2022-12-29T07:55:39;96019.09;;;5.67;76.30
22651;BME280;11492;42.646;23.400;2022-12-29T07:58:04;96025.56;;;5.82;76.76
22651;BME280;11492;42.646;23.400;2022-12-29T08:00:30;96014.00;;;5.87;76.85
22651;BME280;11492;42.646;23.400;2022-12-29T08:02:55;96017.38;;;6.17;74.78
22651;BME280;11492;42.646;23.400;2022-12-29T08:05:21;96021.56;;;6.18;74.65
22651;BME280;11492;42.646;23.400;2022-12-29T08:07:46;96025.66;;;6.30;73.50
22651;BME280;11492;42.646;23.400;2022-12-29T08:10:13;96029.41;;;6.26;73.41
22651;BME280;11492;42.646;23.400;2022-12-29T08:12:39;96031.31;;;6.24;73.81
22651;BME280;11492;42.646;23.400;2022-12-29T08:15:06;96030.69;;;6.31;73.29
22651;BME280;11492;42.646;23.400;2022-12-29T08:17:32;96034.97;;;6.31;73.35
22651;BME280;11492;42.646;23.400;2022-12-29T08:19:57;96027.59;;;6.37;73.76
22651;BME280;11492;42.646;23.400;2022-12-29T08:22:23;96027.63;;;6.46;73.33
22651;BME280;11492;42.646;23.400;2022-12-29T08:24:48;96021.16;;;6.43;73.08
22651;BME280;11492;42.646;23.400;2022-12-29T08:27:14;96022.75;;;6.44;72.96
22651;BME280;11492;42.646;23.400;2022-12-29T08:29:41;96026.38;;;6.41;72.70
22651;BME280;11492;42.646;23.400;2022-12-29T08:32:06;96027.84;;;6.34;72.74
22651;BME280;11492;42.646;23.400;2022-12-29T08:34:32;96020.34;;;6.42;72.42
22651;BME280;11492;42.646;23.400;2022-12-29T08:36:57;96021.16;;;6.52;72.22
22651;BME280;11492;42.646;23.400;2022-12-29T08:39:23;96017.69;;;6.62;72.33
22651;BME280;11492;42.646;23.400;2022-12-29T08:41:48;96014.72;;;6.67;72.07
22651;BME280;11492;42.646;23.400;2022-12-29T08:44:14;96007.34;;;6.73;71.62
22651;BME280;11492;42.646;23.400;2022-12-29T08:46:39;96014.66;;;6.87;71.78
22651;BME280;11492;42.646;23.400;2022-12-29T08:49:05;96011.28;;;6.96;71.53
22651;BME280;11492;42.646;23.400;2022-12-29T08:51:30;96019.94;;;7.13;71.10
22651;BME280;11492;42.646;23.400;2022-12-29T08:53:56;96017.00;;;7.27;70.89
22651;BME280;11492;42.646;23.400;2022-12-29T08:56:21;96005.38;;;7.32;70.18
22651;BME280;11492;42.646;23.400;2022-12-29T08:58:49;96016.47;;;7.51;69.67
22651;BME280;11492;42.646;23.400;2022-12-29T09:01:14;96010.13;;;7.46;69.38
22651;BME280;11492;42.646;23.400;2022-12-29T09:03:40;96008.22;;;7.39;69.44
22651;BME280;11492;42.646;23.400;2022-12-29T09:06:05;95995.78;;;7.44;70.02
22651;BME280;11492;42.646;23.400;2022-12-29T09:08:31;95992.41;;;7.62;69.65
22651;BME280;11492;42.646;23.400;2022-12-29T09:13:33;95999.78;;;7.93;68.72
22651;BME280;11492;42.646;23.400;2022-12-29T09:15:59;95997.19;;;8.11;67.99
22651;BME280;11492;42.646;23.400;2022-12-29T09:18:24;95985.81;;;8.76;66.68
22651;BME280;11492;42.646;23.400;2022-12-29T09:20:56;95981.19;;;10.65;62.56
22651;BME280;11492;42.646;23.400;2022-12-29T09:23:21;95971.06;;;12.14;55.57
22651;BME280;11492;42.646;23.400;2022-12-29T09:25:47;95971.31;;;14.14;51.09
22651;BME280;11492;42.646;23.400;2022-12-29T09:28:13;95972.63;;;15.38;47.23
22651;BME280;11492;42.646;23.400;2022-12-29T09:30:38;95974.19;;;15.95;44.46
22651;BME280;11492;42.646;23.400;2022-12-29T09:33:04;95967.19;;;17.09;43.08
22651;BME280;11492;42.646;23.400;2022-12-29T09:35:29;95960.84;;;18.28;41.07
22651;BME280;11492;42.646;23.400;2022-12-29T09:37:55;95962.69;;;19.22;37.90
22651;BME280;11492;42.646;23.400;2022-12-29T09:40:25;95961.19;;;19.81;36.46
22651;BME280;11492;42.646;23.400;2022-12-29T09:43:26;95950.31;;;20.08;35.93
22651;BME280;11492;42.646;23.400;2022-12-29T09:46:23;95947.53;;;20.27;34.92
22651;BME280;11492;42.646;23.400;2022-12-29T09:51:38;95944.94;;;20.69;34.19
22651;BME280;11492;42.646;23.400;2022-12-29T09:54:48;95938.69;;;19.98;34.48
22651;BME280;11492;42.646;23.400;2022-12-29T09:57:15;95932.78;;;20.02;34.52
22651;BME280;11492;42.646;23.400;2022-12-29T09:59:43;95938.00;;;20.57;34.05
22651;BME280;11492;42.646;23.400;2022-12-29T10:02:23;95942.34;;;21.04;33.23
22651;BME280;11492;42.646;23.400;2022-12-29T10:04:52;95936.06;;;21.23;32.66
22651;BME280;11492;42.646;23.400;2022-12-29T10:07:33;95932.28;;;21.19;32.75
22651;BME280;11492;42.646;23.400;2022-12-29T10:10:14;95913.50;;;21.80;31.99
22651;BME280;11492;42.646;23.400;2022-12-29T10:20:54;95912.63;;;22.82;30.29
22651;BME280;11492;42.646;23.400;2022-12-29T10:23:39;95917.75;;;22.89;30.42
22651;BME280;11492;42.646;23.400;2022-12-29T10:26:11;95915.78;;;22.96;29.89
22651;BME280;11492;42.646;23.400;2022-12-29T10:28:40;95915.41;;;23.15;29.41
22651;BME280;11492;42.646;23.400;2022-12-29T10:31:12;95902.66;;;23.34;29.37
22651;BME280;11492;42.646;23.400;2022-12-29T10:33:41;95909.91;;;23.82;28.70
22651;BME280;11492;42.646;23.400;2022-12-29T10:36:43;95909.91;;;24.26;28.16
22651;BME280;11492;42.646;23.400;2022-12-29T10:39:49;95896.28;;;24.82;27.67
22651;BME280;11492;42.646;23.400;2022-12-29T10:42:29;95898.41;;;24.48;27.80
22651;BME280;11492;42.646;23.400;2022-12-29T10:45:02;95893.53;;;24.24;27.78
22651;BME280;11492;42.646;23.400;2022-12-29T10:47:32;95890.19;;;24.01;28.48
22651;BME280;11492;42.646;23.400;2022-12-29T10:50:01;95894.84;;;24.10;28.05
22651;BME280;11492;42.646;23.400;2022-12-29T10:52:28;95889.06;;;24.62;27.27
22651;BME280;11492;42.646;23.400;2022-12-29T10:55:17;95880.56;;;25.13;27.10
22651;BME280;11492;42.646;23.400;2022-12-29T10:57:45;95881.28;;;25.30;27.27
22651;BME280;11492;42.646;23.400;2022-12-29T11:00:15;95891.44;;;24.58;27.28
22651;BME280;11492;42.646;23.400;2022-12-29T11:08:28;95870.59;;;24.46;27.77
22651;BME280;11492;42.646;23.400;2022-12-29T11:11:07;95867.03;;;24.19;28.62
22651;BME280;11492;42.646;23.400;2022-12-29T11:14:13;95865.88;;;24.48;29.06
22651;BME280;11492;42.646;23.400;2022-12-29T11:16:40;95858.19;;;23.81;28.31
22651;BME280;11492;42.646;23.400;2022-12-29T11:19:24;95858.84;;;23.45;29.32
22651;BME280;11492;42.646;23.400;2022-12-29T11:21:51;95855.44;;;23.22;29.54
22651;BME280;11492;42.646;23.400;2022-12-29T11:26:45;95855.78;;;22.75;29.67
22651;BME280;11492;42.646;23.400;2022-12-29T11:29:20;95845.34;;;23.57;29.04
22651;BME280;11492;42.646;23.400;2022-12-29T11:31:48;95837.06;;;23.98;28.63
22651;BME280;11492;42.646;23.400;2022-12-29T11:34:18;95831.44;;;25.17;27.81
22651;BME280;11492;42.646;23.400;2022-12-29T11:36:44;95837.94;;;25.31;26.91
22651;BME280;11492;42.646;23.400;2022-12-29T11:39:26;95838.94;;;26.03;26.21
22651;BME280;11492;42.646;23.400;2022-12-29T11:41:53;95838.88;;;25.67;26.19
22651;BME280;11492;42.646;23.400;2022-12-29T11:44:19;95832.50;;;25.94;26.78
22651;BME280;11492;42.646;23.400;2022-12-29T11:46:48;95830.97;;;26.29;26.24
22651;BME280;11492;42.646;23.400;2022-12-29T11:49:21;95828.53;;;24.98;26.97
22651;BME280;11492;42.646;23.400;2022-12-29T11:51:49;95833.75;;;23.31;29.12
22651;BME280;11492;42.646;23.400;2022-12-29T11:54:21;95844.50;;;21.78;31.01
22651;BME280;11492;42.646;23.400;2022-12-29T11:56:48;95840.81;;;20.81;33.49
22651;BME280;11492;42.646;23.400;2022-12-29T12:01:56;95827.97;;;22.79;31.55
22651;BME280;11492;42.646;23.400;2022-12-29T12:04:29;95827.28;;;24.47;29.84
22651;BME280;11492;42.646;23.400;2022-12-29T12:07:13;95823.69;;;25.58;27.66
22651;BME280;11492;42.646;23.400;2022-12-29T12:09:49;95815.41;;;25.50;26.86
22651;BME280;11492;42.646;23.400;2022-12-29T12:12:24;95821.22;;;25.04;27.13
22651;BME280;11492;42.646;23.400;2022-12-29T12:14:55;95824.41;;;23.51;28.56
22651;BME280;11492;42.646;23.400;2022-12-29T12:18:00;95828.28;;;21.81;31.09
22651;BME280;11492;42.646;23.400;2022-12-29T12:23:01;95829.50;;;19.49;34.33
22651;BME280;11492;42.646;23.400;2022-12-29T12:25:32;95823.69;;;18.11;36.77
22651;BME280;11492;42.646;23.400;2022-12-29T12:30:46;95825.41;;;16.50;40.93
22651;BME280;11492;42.646;23.400;2022-12-29T12:33:33;95827.06;;;15.91;42.00
22651;BME280;11492;42.646;23.400;2022-12-29T12:47:23;95825.31;;;14.04;47.05
22651;BME280;11492;42.646;23.400;2022-12-29T12:58:35;95830.31;;;13.19;49.90
22651;BME280;11492;42.646;23.400;2022-12-29T13:01:29;95822.63;;;13.11;51.61
22651;BME280;11492;42.646;23.400;2022-12-29T13:15:04;95818.50;;;12.72;52.01
22651;BME280;11492;42.646;23.400;2022-12-29T13:17:46;95816.75;;;12.65;51.49
22651;BME280;11492;42.646;23.400;2022-12-29T13:20:43;95815.34;;;12.63;52.86
22651;BME280;11492;42.646;23.400;2022-12-29T13:26:09;95835.63;;;12.51;53.30
22651;BME280;11492;42.646;23.400;2022-12-29T13:36:35;95817.72;;;15.69;46.52
22651;BME280;11492;42.646;23.400;2022-12-29T13:43:57;95811.41;;;18.12;39.88
22651;BME280;11492;42.646;23.400;2022-12-29T13:46:28;95815.81;;;18.24;39.66
22651;BME280;11492;42.646;23.400;2022-12-29T13:49:11;95807.53;;;18.33;39.30
22651;BME280;11492;42.646;23.400;2022-12-29T13:51:43;95806.59;;;18.65;39.32
22651;BME280;11492;42.646;23.400;2022-12-29T13:54:43;95813.31;;;18.98;38.41
22651;BME280;11492;42.646;23.400;2022-12-29T13:57:18;95806.34;;;18.72;38.29
22651;BME280;11492;42.646;23.400;2022-12-29T13:59:53;95802.94;;;18.16;39.27
22651;BME280;11492;42.646;23.400;2022-12-29T14:07:25;95812.09;;;16.26;42.86
22651;BME280;11492;42.646;23.400;2022-12-29T14:09:53;95827.13;;;15.70;44.24
22651;BME280;11492;42.646;23.400;2022-12-29T14:12:40;95815.97;;;15.08;45.62
22651;BME280;11492;42.646;23.400;2022-12-29T14:17:34;95825.41;;;14.25;47.91
22651;BME280;11492;42.646;23.400;2022-12-29T14:20:00;95838.03;;;13.99;48.75
22651;BME280;11492;42.646;23.400;2022-12-29T14:22:27;95835.97;;;13.59;49.90
22651;BME280;11492;42.646;23.400;2022-12-29T14:24:53;95831.97;;;13.34;50.30
22651;BME280;11492;42.646;23.400;2022-12-29T14:29:45;95820.78;;;12.75;52.67
22651;BME280;11492;42.646;23.400;2022-12-29T14:34:46;95843.50;;;12.28;53.87
22651;BME280;11492;42.646;23.400;2022-12-29T14:37:35;95857.34;;;12.05;55.00
22651;BME280;11492;42.646;23.400;2022-12-29T14:42:49;95864.09;;;11.60;56.71
22651;BME280;11492;42.646;23.400;2022-12-29T14:47:48;95859.56;;;11.31;57.50
22651;BME280;11492;42.646;23.400;2022-12-29T14:50:41;95859.06;;;11.12;58.41
22651;BME280;11492;42.646;23.400;2022-12-29T14:56:12;95856.91;;;10.76;59.83
22651;BME280;11492;42.646;23.400;2022-12-29T14:59:08;95864.50;;;10.62;60.54
22651;BME280;11492;42.646;23.400;2022-12-29T15:01:43;95855.25;;;10.44;61.06
22651;BME280;11492;42.646;23.400;2022-12-29T15:04:21;95861.31;;;10.27;61.04
22651;BME280;11492;42.646;23.400;2022-12-29T15:06:49;95863.84;;;10.19;61.45
22651;BME280;11492;42.646;23.400;2022-12-29T15:09:28;95872.50;;;10.02;61.74
22651;BME280;11492;42.646;23.400;2022-12-29T15:12:04;95870.66;;;9.87;61.56
22651;BME280;11492;42.646;23.400;2022-12-29T15:14:34;95854.69;;;9.67;62.04
22651;BME280;11492;42.646;23.400;2022-12-29T15:17:01;95854.84;;;9.57;62.91
22651;BME280;11492;42.646;23.400;2022-12-29T15:19:27;95867.56;;;9.59;63.68
22651;BME280;11492;42.646;23.400;2022-12-29T15:21:54;95861.53;;;9.50;64.03